createdAt,value
2018-12-03T00:01:08.880Z,0
2018-12-03T00:02:19.075Z,0
2018-12-03T00:03:29.214Z,0
2018-12-03T00:04:40.342Z,0
2018-12-03T00:05:50.469Z,0
2018-12-03T00:07:00.828Z,0
2018-12-03T00:08:12.794Z,0
2018-12-03T00:09:22.709Z,0
2018-12-03T00:10:32.835Z,0
2018-12-03T00:11:42.975Z,0
2018-12-03T00:12:53.158Z,0
2018-12-03T00:14:03.295Z,0
2018-12-03T00:15:13.443Z,0
2018-12-03T00:16:23.594Z,0
2018-12-03T00:17:33.768Z,0
2018-12-03T00:18:43.686Z,0
2018-12-03T00:19:53.817Z,0
2018-12-03T00:21:03.958Z,0
2018-12-03T00:22:14.179Z,0
2018-12-03T00:23:24.328Z,0
2018-12-03T00:24:34.482Z,0
2018-12-03T00:25:44.607Z,0
2018-12-03T00:26:54.713Z,0
2018-12-03T00:28:04.853Z,0
2018-12-03T00:29:14.995Z,0
2018-12-03T00:30:25.198Z,0
2018-12-03T00:31:35.350Z,0
2018-12-03T00:32:45.219Z,0
2018-12-03T00:33:55.106Z,0
2018-12-03T00:35:05.962Z,0
2018-12-03T00:36:16.138Z,0
2018-12-03T00:37:26.012Z,0
2018-12-03T00:38:36.136Z,0
2018-12-03T00:39:45.744Z,0
2018-12-03T00:40:55.864Z,0
2018-12-03T00:42:06.118Z,0
2018-12-03T00:43:16.003Z,0
2018-12-03T00:44:25.894Z,0
2018-12-03T00:45:36.014Z,0
2018-12-03T00:46:46.507Z,0
2018-12-03T00:47:56.663Z,0
2018-12-03T00:49:06.533Z,0
2018-12-03T00:50:16.893Z,0
2018-12-03T00:51:27.008Z,0
2018-12-03T00:52:37.143Z,0
2018-12-03T00:53:47.024Z,0
2018-12-03T00:54:57.151Z,0
2018-12-03T00:56:07.305Z,0
2018-12-03T00:57:17.430Z,0
2018-12-03T00:58:27.315Z,0
2018-12-03T00:59:37.447Z,0
2018-12-03T01:00:47.674Z,0
2018-12-03T01:01:57.798Z,0
2018-12-03T01:03:07.671Z,0
2018-12-03T01:04:17.803Z,0
2018-12-03T01:05:27.713Z,0
2018-12-03T01:06:37.859Z,0
2018-12-03T01:07:48.000Z,0
2018-12-03T01:08:58.121Z,0
2018-12-03T01:10:08.698Z,0
2018-12-03T01:11:18.565Z,0
2018-12-03T01:12:28.700Z,0
2018-12-03T01:13:38.541Z,0
2018-12-03T01:14:48.674Z,0
2018-12-03T01:15:58.511Z,0
2018-12-03T01:17:08.669Z,0
2018-12-03T01:18:18.803Z,0
2018-12-03T01:19:28.952Z,0
2018-12-03T01:20:39.140Z,0
2018-12-03T01:21:49.246Z,0
2018-12-03T01:22:59.374Z,0
2018-12-03T01:24:09.478Z,0
2018-12-03T01:25:19.087Z,0
2018-12-03T01:26:28.945Z,0
2018-12-03T01:27:39.080Z,0
2018-12-03T01:28:49.277Z,0
2018-12-03T01:29:59.399Z,0
2018-12-03T01:31:10.274Z,0
2018-12-03T01:32:20.394Z,0
2018-12-03T01:33:30.549Z,0
2018-12-03T01:34:40.681Z,0
2018-12-03T01:35:50.813Z,0
2018-12-03T01:37:02.655Z,0
2018-12-03T01:38:13.086Z,0
2018-12-03T01:39:23.215Z,0
2018-12-03T01:40:33.380Z,0
2018-12-03T01:41:43.256Z,0
2018-12-03T01:42:53.131Z,0
2018-12-03T01:44:03.267Z,0
2018-12-03T01:45:13.481Z,0
2018-12-03T01:46:23.660Z,0
2018-12-03T01:47:33.788Z,0
2018-12-03T01:48:43.930Z,0
2018-12-03T01:49:54.041Z,0
2018-12-03T01:51:03.915Z,0
2018-12-03T01:52:14.092Z,0
2018-12-03T01:53:24.233Z,0
2018-12-03T01:54:34.095Z,0
2018-12-03T01:55:44.217Z,0
2018-12-03T01:56:54.338Z,0
2018-12-03T01:58:05.518Z,0
2018-12-03T01:59:15.648Z,0
2018-12-03T02:00:25.776Z,0
2018-12-03T02:01:35.918Z,0
2018-12-03T02:02:46.060Z,0
2018-12-03T02:03:56.414Z,0
2018-12-03T02:05:06.581Z,0
2018-12-03T02:06:16.707Z,0
2018-12-03T02:07:26.833Z,0
2018-12-03T02:08:36.946Z,0
2018-12-03T02:09:46.923Z,0
2018-12-03T02:10:57.054Z,0
2018-12-03T02:12:07.176Z,0
2018-12-03T02:13:17.309Z,0
2018-12-03T02:14:27.481Z,0
2018-12-03T02:15:37.648Z,0
2018-12-03T02:16:47.517Z,0
2018-12-03T02:17:57.394Z,0
2018-12-03T02:19:07.525Z,0
2018-12-03T02:20:17.662Z,0
2018-12-03T02:21:27.493Z,0
2018-12-03T02:22:37.635Z,0
2018-12-03T02:23:47.976Z,0
2018-12-03T02:24:58.100Z,0
2018-12-03T02:26:08.206Z,0
2018-12-03T02:27:18.132Z,0
2018-12-03T02:28:28.293Z,0
2018-12-03T02:29:38.428Z,0
2018-12-03T02:30:48.613Z,0
2018-12-03T02:31:58.235Z,0
2018-12-03T02:33:08.592Z,0
2018-12-03T02:34:18.751Z,0
2018-12-03T02:35:28.864Z,0
2018-12-03T02:36:38.756Z,0
2018-12-03T02:37:48.875Z,0
2018-12-03T02:39:00.085Z,0
2018-12-03T02:40:12.779Z,0
2018-12-03T02:41:22.930Z,0
2018-12-03T02:42:32.810Z,0
2018-12-03T02:43:43.198Z,0
2018-12-03T02:44:53.332Z,0
2018-12-03T02:46:04.688Z,0
2018-12-03T02:47:14.556Z,0
2018-12-03T02:48:24.682Z,0
2018-12-03T02:49:34.571Z,0
2018-12-03T02:50:44.518Z,0
2018-12-03T02:51:54.637Z,0
2018-12-03T02:53:04.737Z,0
2018-12-03T02:54:14.853Z,0
2018-12-03T02:55:24.968Z,0
2018-12-03T02:56:35.313Z,0
2018-12-03T02:57:45.443Z,0
2018-12-03T02:58:55.582Z,0
2018-12-03T03:00:05.719Z,0
2018-12-03T03:01:15.889Z,0
2018-12-03T03:02:26.018Z,0
2018-12-03T03:34:50.198Z,0
2018-12-03T03:36:00.400Z,0
2018-12-03T03:37:10.450Z,0
2018-12-03T03:38:20.530Z,0
2018-12-03T03:39:30.689Z,0
2018-12-03T03:40:40.618Z,0
2018-12-03T03:41:50.434Z,0
2018-12-03T03:43:00.480Z,0
2018-12-03T03:44:10.551Z,0
2018-12-03T03:45:20.712Z,0
2018-12-03T03:46:30.786Z,0
2018-12-03T03:47:40.586Z,0
2018-12-03T03:48:50.648Z,0
2018-12-03T03:50:00.455Z,0
2018-12-03T03:51:10.517Z,0
2018-12-03T03:52:20.647Z,0
2018-12-03T03:53:30.706Z,0
2018-12-03T03:54:40.760Z,0
2018-12-03T03:55:51.120Z,0
2018-12-03T03:57:00.916Z,0
2018-12-03T03:58:10.258Z,0
2018-12-03T03:59:20.327Z,0
2018-12-03T04:00:30.381Z,0
2018-12-03T04:01:40.210Z,0
2018-12-03T04:02:50.340Z,0
2018-12-03T04:04:00.462Z,0
2018-12-03T04:05:11.060Z,0
2018-12-03T04:06:21.149Z,0
2018-12-03T04:07:31.206Z,0
2018-12-03T04:08:41.006Z,0
2018-12-03T04:09:51.078Z,0
2018-12-03T04:11:03.242Z,0
2018-12-03T04:12:12.757Z,0
2018-12-03T04:13:22.825Z,0
2018-12-03T04:14:32.912Z,0
2018-12-03T04:15:43.048Z,0
2018-12-03T04:16:53.108Z,0
2018-12-03T04:18:03.769Z,0
2018-12-03T04:19:13.576Z,0
2018-12-03T04:20:23.695Z,0
2018-12-03T04:21:33.741Z,0
2018-12-03T04:22:43.854Z,0
2018-12-03T04:23:53.912Z,0
2018-12-03T04:25:04.005Z,0
2018-12-03T04:26:14.068Z,0
2018-12-03T04:27:24.134Z,0
2018-12-03T04:28:34.226Z,0
2018-12-03T04:29:44.305Z,0
2018-12-03T04:30:54.369Z,0
2018-12-03T04:32:04.439Z,0
2018-12-03T04:33:14.544Z,0
2018-12-03T04:34:24.140Z,0
2018-12-03T04:35:34.232Z,0
2018-12-03T04:36:44.295Z,0
2018-12-03T04:37:54.425Z,0
2018-12-03T04:39:05.592Z,0
2018-12-03T04:40:15.681Z,0
2018-12-03T04:41:25.756Z,0
2018-12-03T04:42:35.838Z,0
2018-12-03T04:43:45.918Z,0
2018-12-03T04:44:56.012Z,0
2018-12-03T04:46:07.124Z,0
2018-12-03T04:47:17.185Z,0
2018-12-03T04:48:26.990Z,0
2018-12-03T04:49:37.244Z,0
2018-12-03T04:50:47.115Z,0
2018-12-03T04:51:57.168Z,0
2018-12-03T04:53:07.234Z,0
2018-12-03T04:54:17.502Z,0
2018-12-03T04:55:27.677Z,0
2018-12-03T04:56:37.808Z,0
2018-12-03T04:57:47.635Z,0
2018-12-03T04:58:57.719Z,0
2018-12-03T05:00:07.547Z,0
2018-12-03T05:01:17.381Z,0
2018-12-03T05:02:27.434Z,0
2018-12-03T05:03:37.270Z,0
2018-12-03T05:04:47.941Z,0
2018-12-03T05:05:57.522Z,0
2018-12-03T05:07:08.025Z,0
2018-12-03T05:08:18.198Z,0
2018-12-03T05:09:28.264Z,0
2018-12-03T05:10:38.637Z,0
2018-12-03T05:11:48.694Z,0
2018-12-03T05:12:58.966Z,0
2018-12-03T05:14:08.796Z,0
2018-12-03T05:15:18.614Z,0
2018-12-03T05:16:28.748Z,0
2018-12-03T05:17:38.799Z,0
2018-12-03T05:18:48.609Z,0
2018-12-03T05:19:58.681Z,0
2018-12-03T05:21:08.737Z,0
2018-12-03T05:22:18.823Z,0
2018-12-03T05:23:28.896Z,0
2018-12-03T05:24:38.957Z,0
2018-12-03T05:25:48.746Z,0
2018-12-03T05:26:58.820Z,0
2018-12-03T05:28:08.730Z,0
2018-12-03T05:29:18.802Z,0
2018-12-03T05:30:28.647Z,0
2018-12-03T05:31:38.761Z,0
2018-12-03T05:32:48.857Z,0
2018-12-03T05:33:58.664Z,0
2018-12-03T05:35:09.524Z,0
2018-12-03T05:36:19.573Z,0
2018-12-03T05:37:29.382Z,0
2018-12-03T05:38:39.483Z,0
2018-12-03T05:39:49.789Z,0
2018-12-03T05:40:59.586Z,0
2018-12-03T05:42:10.349Z,0
2018-12-03T05:43:20.420Z,0
2018-12-03T05:44:30.483Z,0
2018-12-03T05:45:40.545Z,0
2018-12-03T05:46:50.629Z,0
2018-12-03T05:48:00.426Z,0
2018-12-03T05:49:10.009Z,0
2018-12-03T05:50:20.048Z,0
2018-12-03T05:51:30.104Z,0
2018-12-03T05:52:40.394Z,0
2018-12-03T05:53:50.452Z,0
2018-12-03T05:55:00.518Z,0
2018-12-03T05:56:10.605Z,0
2018-12-03T05:57:20.957Z,0
2018-12-03T05:58:31.013Z,0
2018-12-03T05:59:41.077Z,0
2018-12-03T06:00:51.153Z,0
2018-12-03T06:02:01.212Z,0
2018-12-03T06:03:11.069Z,0
2018-12-03T06:04:21.134Z,0
2018-12-03T06:05:31.856Z,0
2018-12-03T06:06:42.015Z,0
2018-12-03T06:07:52.105Z,0
2018-12-03T06:09:03.616Z,0
2018-12-03T06:10:13.400Z,0
2018-12-03T06:11:23.696Z,0
2018-12-03T06:12:33.771Z,0
2018-12-03T06:13:43.844Z,0
2018-12-03T06:14:54.012Z,0
2018-12-03T06:16:06.154Z,0
2018-12-03T06:17:16.207Z,0
2018-12-03T06:18:26.309Z,0
2018-12-03T06:19:36.145Z,0
2018-12-03T06:20:45.960Z,0
2018-12-03T06:21:56.022Z,0
2018-12-03T06:23:06.107Z,0
2018-12-03T06:24:16.188Z,0
2018-12-03T06:25:26.286Z,0
2018-12-03T06:26:36.169Z,0
2018-12-03T06:27:46.261Z,0
2018-12-03T06:28:56.341Z,0
2018-12-03T06:30:06.406Z,0
2018-12-03T06:31:16.462Z,0
2018-12-03T06:32:26.718Z,0
2018-12-03T06:33:36.818Z,0
2018-12-03T06:34:46.893Z,0
2018-12-03T06:35:56.690Z,0
2018-12-03T06:37:06.762Z,0
2018-12-03T06:38:22.266Z,0
2018-12-03T06:39:32.334Z,0
2018-12-03T06:40:42.668Z,0
2018-12-03T06:41:52.730Z,0
2018-12-03T06:43:02.796Z,0
2018-12-03T06:44:12.599Z,0
2018-12-03T06:45:22.401Z,0
2018-12-03T06:46:32.221Z,0
2018-12-03T06:47:42.397Z,0
2018-12-03T06:48:52.469Z,0
2018-12-03T06:50:02.998Z,5
2018-12-03T06:51:12.811Z,5
2018-12-03T06:52:22.880Z,5
2018-12-03T06:53:32.965Z,5
2018-12-03T06:54:42.768Z,5
2018-12-03T06:55:52.848Z,5
2018-12-03T06:57:03.650Z,5
2018-12-03T06:58:13.713Z,10
2018-12-03T06:59:23.552Z,10
2018-12-03T07:00:33.347Z,10
2018-12-03T07:01:43.631Z,10
2018-12-03T07:02:53.758Z,10
2018-12-03T07:04:03.861Z,10
2018-12-03T07:05:13.934Z,10
2018-12-03T07:06:23.995Z,10
2018-12-03T07:07:33.785Z,10
2018-12-03T07:08:43.827Z,10
2018-12-03T07:09:55.119Z,15
2018-12-03T07:11:07.475Z,15
2018-12-03T07:12:17.550Z,15
2018-12-03T07:13:27.858Z,15
2018-12-03T07:14:37.976Z,15
2018-12-03T07:15:48.037Z,15
2018-12-03T07:16:58.100Z,15
2018-12-03T07:18:08.394Z,15
2018-12-03T07:19:18.706Z,15
2018-12-03T07:20:28.769Z,20
2018-12-03T07:21:38.561Z,15
2018-12-03T07:22:48.373Z,15
2018-12-03T07:23:58.451Z,20
2018-12-03T07:25:08.006Z,20
2018-12-03T07:26:18.059Z,20
2018-12-03T07:27:29.376Z,25
2018-12-03T07:28:39.455Z,25
2018-12-03T07:29:52.810Z,30
2018-12-03T07:31:03.098Z,25
2018-12-03T07:32:13.229Z,25
2018-12-03T07:33:23.280Z,25
2018-12-03T07:34:33.343Z,30
2018-12-03T07:35:42.951Z,25
2018-12-03T07:36:53.000Z,30
2018-12-03T07:38:03.096Z,20
2018-12-03T07:39:13.160Z,25
2018-12-03T07:40:23.224Z,20
2018-12-03T07:41:33.040Z,20
2018-12-03T07:42:42.877Z,20
2018-12-03T07:43:52.963Z,20
2018-12-03T07:45:03.226Z,20
2018-12-03T07:46:13.288Z,25
2018-12-03T07:47:23.110Z,25
2018-12-03T07:48:33.158Z,25
2018-12-03T07:49:42.963Z,25
2018-12-03T07:50:52.791Z,25
2018-12-03T07:52:03.345Z,25
2018-12-03T07:53:13.411Z,30
2018-12-03T07:54:23.214Z,35
2018-12-03T07:55:33.289Z,30
2018-12-03T07:56:43.345Z,35
2018-12-03T07:57:52.969Z,30
2018-12-03T07:59:03.496Z,35
2018-12-03T08:00:14.613Z,30
2018-12-03T08:01:24.692Z,35
2018-12-03T08:02:34.766Z,35
2018-12-03T08:03:44.832Z,35
2018-12-03T08:04:54.911Z,35
2018-12-03T08:06:04.461Z,35
2018-12-03T08:07:14.279Z,35
2018-12-03T08:08:24.360Z,40
2018-12-03T08:09:34.182Z,40
2018-12-03T08:10:44.253Z,40
2018-12-03T08:11:54.312Z,40
2018-12-03T08:13:04.382Z,40
2018-12-03T08:14:14.467Z,40
2018-12-03T08:15:24.542Z,40
2018-12-03T08:16:34.602Z,40
2018-12-03T08:17:44.662Z,40
2018-12-03T08:18:54.753Z,45
2018-12-03T08:20:06.013Z,45
2018-12-03T08:21:16.073Z,45
2018-12-03T08:22:25.638Z,50
2018-12-03T08:23:35.715Z,50
2018-12-03T08:24:45.785Z,50
2018-12-03T08:25:55.853Z,50
2018-12-03T08:27:05.896Z,45
2018-12-03T08:28:16.027Z,40
2018-12-03T08:29:26.107Z,40
2018-12-03T08:30:36.165Z,40
2018-12-03T08:31:45.978Z,35
2018-12-03T08:32:56.059Z,30
2018-12-03T08:34:06.386Z,30
2018-12-03T08:35:16.448Z,30
2018-12-03T08:36:26.503Z,30
2018-12-03T08:37:36.568Z,25
2018-12-03T08:38:46.632Z,25
2018-12-03T08:39:56.699Z,25
2018-12-03T08:41:07.233Z,25
2018-12-03T08:42:17.311Z,20
2018-12-03T08:43:27.385Z,20
2018-12-03T08:44:37.446Z,25
2018-12-03T08:45:47.508Z,25
2018-12-03T08:46:57.560Z,20
2018-12-03T08:48:10.594Z,20
2018-12-03T08:49:21.476Z,20
2018-12-03T08:50:31.810Z,25
2018-12-03T08:51:41.750Z,25
2018-12-03T08:52:51.836Z,25
2018-12-03T08:54:01.648Z,25
2018-12-03T08:55:11.958Z,25
2018-12-03T08:56:22.055Z,30
2018-12-03T08:57:32.562Z,30
2018-12-03T08:58:41.846Z,35
2018-12-03T08:59:51.677Z,35
2018-12-03T09:01:02.391Z,35
2018-12-03T09:02:12.464Z,35
2018-12-03T09:03:22.542Z,40
2018-12-03T09:04:32.357Z,45
2018-12-03T09:05:42.166Z,45
2018-12-03T09:06:52.238Z,45
2018-12-03T09:08:02.954Z,55
2018-12-03T09:09:13.027Z,60
2018-12-03T09:10:22.861Z,55
2018-12-03T09:11:32.934Z,60
2018-12-03T09:12:43.090Z,65
2018-12-03T09:13:52.898Z,80
2018-12-03T09:15:02.963Z,80
2018-12-03T09:16:13.064Z,80
2018-12-03T09:17:23.122Z,70
2018-12-03T09:18:32.663Z,70
2018-12-03T09:19:42.719Z,80
2018-12-03T09:20:52.809Z,75
2018-12-03T09:22:04.580Z,75
2018-12-03T09:23:14.638Z,80
2018-12-03T09:24:24.697Z,75
2018-12-03T09:25:34.506Z,65
2018-12-03T09:26:44.787Z,65
2018-12-03T09:27:54.653Z,65
2018-12-03T09:29:05.527Z,60
2018-12-03T09:30:15.583Z,50
2018-12-03T09:31:25.655Z,45
2018-12-03T09:32:35.771Z,50
2018-12-03T09:33:45.916Z,40
2018-12-03T09:34:56.009Z,40
2018-12-03T09:36:07.790Z,50
2018-12-03T09:37:17.582Z,50
2018-12-03T09:38:27.661Z,45
2018-12-03T09:39:37.789Z,40
2018-12-03T09:40:47.613Z,40
2018-12-03T09:41:57.672Z,40
2018-12-03T09:43:07.766Z,40
2018-12-03T09:44:17.822Z,45
2018-12-03T09:45:28.139Z,35
2018-12-03T09:46:38.316Z,30
2018-12-03T09:47:48.410Z,30
2018-12-03T09:48:58.494Z,30
2018-12-03T09:50:08.805Z,35
2018-12-03T09:51:18.882Z,40
2018-12-03T09:52:28.682Z,45
2018-12-03T09:53:38.766Z,45
2018-12-03T09:54:48.830Z,40
2018-12-03T09:55:58.908Z,50
2018-12-03T09:57:08.965Z,50
2018-12-03T09:58:19.706Z,45
2018-12-03T09:59:29.776Z,45
2018-12-03T10:00:39.572Z,55
2018-12-03T10:01:49.906Z,50
2018-12-03T10:03:00.055Z,45
2018-12-03T10:04:09.858Z,45
2018-12-03T10:05:19.930Z,50
2018-12-03T10:06:29.748Z,70
2018-12-03T10:07:39.807Z,70
2018-12-03T10:08:49.862Z,60
2018-12-03T10:10:00.187Z,55
2018-12-03T10:11:10.777Z,45
2018-12-03T10:12:26.228Z,45
2018-12-03T10:13:36.317Z,45
2018-12-03T10:14:46.129Z,55
2018-12-03T10:15:56.194Z,45
2018-12-03T10:17:08.361Z,55
2018-12-03T10:18:18.176Z,55
2018-12-03T10:19:28.306Z,55
2018-12-03T10:20:42.125Z,55
2018-12-03T10:21:52.466Z,65
2018-12-03T10:23:03.874Z,75
2018-12-03T10:24:13.952Z,80
2018-12-03T10:25:24.012Z,75
2018-12-03T10:26:34.074Z,80
2018-12-03T10:27:43.895Z,75
2018-12-03T10:28:54.221Z,70
2018-12-03T10:30:04.288Z,75
2018-12-03T10:31:14.644Z,75
2018-12-03T10:32:24.921Z,70
2018-12-03T10:33:35.097Z,75
2018-12-03T10:34:45.167Z,70
2018-12-03T10:35:54.985Z,70
2018-12-03T10:37:05.111Z,70
2018-12-03T10:38:15.396Z,75
2018-12-03T10:39:25.498Z,80
2018-12-03T10:40:35.112Z,80
2018-12-03T10:41:45.198Z,80
2018-12-03T10:42:55.254Z,85
2018-12-03T10:44:05.319Z,80
2018-12-03T10:45:15.392Z,80
2018-12-03T10:46:25.215Z,75
2018-12-03T10:47:35.045Z,70
2018-12-03T10:48:44.850Z,70
2018-12-03T10:49:54.903Z,75
2018-12-03T10:51:05.141Z,75
2018-12-03T10:52:15.023Z,75
2018-12-03T10:53:25.095Z,70
2018-12-03T10:54:35.184Z,75
2018-12-03T10:55:45.249Z,65
2018-12-03T10:56:55.320Z,60
2018-12-03T10:58:07.735Z,60
2018-12-03T10:59:17.782Z,60
2018-12-03T11:00:28.063Z,50
2018-12-03T11:01:38.077Z,45
2018-12-03T11:02:48.160Z,45
2018-12-03T11:03:58.290Z,40
2018-12-03T11:05:08.357Z,35
2018-12-03T11:06:18.463Z,40
2018-12-03T11:07:28.770Z,40
2018-12-03T11:08:39.021Z,40
2018-12-03T11:09:49.448Z,45
2018-12-03T11:10:59.241Z,40
2018-12-03T11:12:09.314Z,45
2018-12-03T11:13:18.879Z,45
2018-12-03T11:14:28.691Z,50
2018-12-03T11:15:38.807Z,45
2018-12-03T11:16:48.945Z,45
2018-12-03T11:17:58.772Z,45
2018-12-03T11:19:08.838Z,45
2018-12-03T11:20:18.652Z,45
2018-12-03T11:21:28.838Z,45
2018-12-03T11:22:38.894Z,35
2018-12-03T11:23:48.701Z,40
2018-12-03T11:24:58.527Z,35
2018-12-03T11:26:10.112Z,35
2018-12-03T11:27:20.237Z,40
2018-12-03T11:28:30.315Z,40
2018-12-03T11:29:40.366Z,40
2018-12-03T11:30:50.458Z,45
2018-12-03T11:32:00.522Z,45
2018-12-03T11:33:10.584Z,45
2018-12-03T11:34:20.689Z,45
2018-12-03T11:35:30.496Z,45
2018-12-03T11:36:40.571Z,45
2018-12-03T11:37:50.674Z,45
2018-12-03T11:39:00.732Z,40
2018-12-03T11:40:11.052Z,45
2018-12-03T11:41:20.891Z,45
2018-12-03T11:42:31.081Z,50
2018-12-03T11:43:41.151Z,55
2018-12-03T11:44:51.668Z,55
2018-12-03T11:46:01.719Z,70
2018-12-03T11:47:11.533Z,70
2018-12-03T11:48:21.468Z,75
2018-12-03T11:49:31.558Z,75
2018-12-03T11:50:41.667Z,75
2018-12-03T11:51:51.987Z,85
2018-12-03T11:53:02.070Z,85
2018-12-03T11:54:26.681Z,85
2018-12-03T11:55:36.758Z,90
2018-12-03T11:56:46.999Z,85
2018-12-03T11:57:57.753Z,80
2018-12-03T11:59:08.292Z,80
2018-12-03T12:00:18.587Z,75
2018-12-03T12:01:28.670Z,75
2018-12-03T12:02:38.722Z,65
2018-12-03T12:03:52.595Z,50
2018-12-03T12:05:02.399Z,55
2018-12-03T12:06:12.454Z,50
2018-12-03T12:07:22.530Z,45
2018-12-03T12:08:32.651Z,45
2018-12-03T12:09:42.728Z,35
2018-12-03T12:10:52.529Z,30
2018-12-03T12:12:02.693Z,35
2018-12-03T12:13:12.757Z,25
2018-12-03T12:14:22.847Z,30
2018-12-03T12:15:32.962Z,40
2018-12-03T12:16:42.591Z,45
2018-12-03T12:17:52.902Z,45
2018-12-03T12:19:03.486Z,55
2018-12-03T12:20:13.566Z,55
2018-12-03T12:21:23.637Z,70
2018-12-03T12:22:33.699Z,70
2018-12-03T12:23:43.776Z,70
2018-12-03T12:24:53.632Z,75
2018-12-03T12:26:05.257Z,60
2018-12-03T12:27:15.329Z,75
2018-12-03T12:28:25.160Z,80
2018-12-03T12:29:35.283Z,70
2018-12-03T12:30:45.335Z,85
2018-12-03T12:31:55.167Z,85
2018-12-03T12:33:05.887Z,85
2018-12-03T12:34:15.962Z,85
2018-12-03T12:35:26.028Z,80
2018-12-03T12:36:36.097Z,80
2018-12-03T12:37:45.909Z,80
2018-12-03T12:38:55.994Z,75
2018-12-03T12:40:06.068Z,75
2018-12-03T12:41:16.148Z,70
2018-12-03T12:42:29.352Z,75
2018-12-03T12:43:42.029Z,65
2018-12-03T12:44:52.108Z,65
2018-12-03T12:46:01.764Z,65
2018-12-03T12:47:11.845Z,70
2018-12-03T12:48:21.929Z,65
2018-12-03T12:49:31.491Z,55
2018-12-03T12:50:42.030Z,65
2018-12-03T12:51:56.522Z,75
2018-12-03T12:53:06.347Z,80
2018-12-03T12:54:16.461Z,80
2018-12-03T12:55:26.337Z,75
2018-12-03T12:56:36.391Z,80
2018-12-03T12:57:46.481Z,75
2018-12-03T12:58:56.598Z,75
2018-12-03T13:00:06.912Z,75
2018-12-03T13:01:17.005Z,80
2018-12-03T13:02:27.128Z,85
2018-12-03T13:03:37.252Z,90
2018-12-03T13:04:47.314Z,75
2018-12-03T13:05:57.376Z,75
2018-12-03T13:07:10.652Z,70
2018-12-03T13:08:20.713Z,65
2018-12-03T13:09:30.785Z,65
2018-12-03T13:10:40.894Z,80
2018-12-03T13:11:50.955Z,90
2018-12-03T13:13:01.052Z,70
2018-12-03T13:14:11.173Z,110
2018-12-03T13:15:21.238Z,110
2018-12-03T13:16:31.104Z,95
2018-12-03T13:17:41.153Z,90
2018-12-03T13:18:51.009Z,80
2018-12-03T13:20:01.086Z,75
2018-12-03T13:21:10.915Z,80
2018-12-03T13:22:21.075Z,80
2018-12-03T13:23:31.203Z,80
2018-12-03T13:24:41.306Z,65
2018-12-03T13:25:51.133Z,70
2018-12-03T13:27:01.315Z,70
2018-12-03T13:28:12.433Z,65
2018-12-03T13:29:22.498Z,60
2018-12-03T13:30:32.575Z,65
2018-12-03T13:31:42.667Z,65
2018-12-03T13:32:52.992Z,65
2018-12-03T13:34:03.046Z,55
2018-12-03T13:35:13.258Z,45
2018-12-03T13:36:23.084Z,50
2018-12-03T13:37:32.904Z,45
2018-12-03T13:38:42.965Z,45
2018-12-03T13:39:52.843Z,40
2018-12-03T13:41:02.913Z,50
2018-12-03T13:42:12.993Z,45
2018-12-03T13:43:23.161Z,40
2018-12-03T13:44:33.165Z,35
2018-12-03T13:45:43.237Z,35
2018-12-03T13:46:53.056Z,35
2018-12-03T13:48:02.818Z,30
2018-12-03T13:49:12.635Z,35
2018-12-03T13:50:22.726Z,30
2018-12-03T13:51:32.774Z,30
2018-12-03T13:52:43.101Z,30
2018-12-03T13:53:53.170Z,25
2018-12-03T13:55:02.959Z,25
2018-12-03T13:56:13.022Z,20
2018-12-03T13:57:23.179Z,20
2018-12-03T13:58:33.233Z,20
2018-12-03T13:59:43.308Z,15
2018-12-03T14:00:53.360Z,15
2018-12-03T14:02:03.177Z,15
2018-12-03T14:03:13.261Z,10
2018-12-03T14:04:23.083Z,10
2018-12-03T14:05:33.153Z,10
2018-12-03T14:06:43.223Z,10
2018-12-03T14:07:53.398Z,10
2018-12-03T14:09:06.204Z,10
2018-12-03T14:10:17.614Z,10
2018-12-03T14:11:27.751Z,10
2018-12-03T14:12:37.884Z,10
2018-12-03T14:13:47.711Z,15
2018-12-03T14:14:57.267Z,15
2018-12-03T14:16:07.207Z,15
2018-12-03T14:17:17.015Z,15
2018-12-03T14:18:27.081Z,15
2018-12-03T14:19:37.253Z,10
2018-12-03T14:20:47.336Z,10
2018-12-03T14:21:57.415Z,10
2018-12-03T14:23:08.589Z,10
2018-12-03T14:24:18.672Z,5
2018-12-03T14:25:28.846Z,5
2018-12-03T14:26:39.033Z,5
2018-12-03T14:27:49.226Z,5
2018-12-03T14:28:59.280Z,5
2018-12-03T14:30:09.368Z,5
2018-12-03T14:31:19.501Z,5
2018-12-03T14:32:29.572Z,5
2018-12-03T14:33:39.634Z,5
2018-12-03T14:34:49.693Z,5
2018-12-03T14:35:59.753Z,5
2018-12-03T14:37:09.978Z,10
2018-12-03T14:38:19.788Z,5
2018-12-03T14:39:29.947Z,5
2018-12-03T14:40:40.020Z,5
2018-12-03T14:41:49.827Z,5
2018-12-03T14:42:59.637Z,5
2018-12-03T14:44:09.706Z,5
2018-12-03T14:45:19.886Z,5
2018-12-03T14:46:29.700Z,0
2018-12-03T14:47:39.796Z,0
2018-12-03T14:48:49.845Z,0
2018-12-03T14:49:59.920Z,0
2018-12-03T14:51:10.287Z,0
2018-12-03T14:52:20.361Z,0
2018-12-03T14:53:30.433Z,0
2018-12-03T14:54:40.553Z,0
2018-12-03T14:55:50.623Z,0
2018-12-03T14:57:00.423Z,0
2018-12-03T14:58:10.529Z,0
2018-12-03T14:59:20.624Z,0
2018-12-03T15:00:30.738Z,0
2018-12-03T15:01:40.818Z,0
2018-12-03T15:02:50.923Z,0
2018-12-03T15:04:01.028Z,0
2018-12-03T15:05:11.181Z,0
2018-12-03T15:06:21.261Z,0
2018-12-03T15:07:31.334Z,0
2018-12-03T15:08:41.417Z,0
2018-12-03T15:09:51.527Z,0
2018-12-03T15:11:01.327Z,0
2018-12-03T15:12:11.446Z,0
2018-12-03T15:13:21.250Z,0
2018-12-03T15:14:31.049Z,0
2018-12-03T15:15:41.117Z,0
2018-12-03T15:16:51.223Z,0
2018-12-03T15:18:01.286Z,0
2018-12-03T15:19:16.236Z,0
2018-12-03T15:20:26.048Z,0
2018-12-03T15:21:36.126Z,0
2018-12-03T15:22:46.185Z,0
2018-12-03T15:23:56.253Z,0
2018-12-03T15:25:06.314Z,0
2018-12-03T15:26:16.148Z,0
2018-12-03T15:27:26.218Z,0
2018-12-03T15:28:36.294Z,0
2018-12-03T15:29:46.356Z,0
2018-12-03T15:30:56.158Z,0
2018-12-03T15:32:06.227Z,0
2018-12-03T15:33:16.305Z,0
2018-12-03T15:34:26.394Z,0
2018-12-03T15:35:36.451Z,0
2018-12-03T15:36:47.355Z,0
2018-12-03T15:37:57.412Z,0
2018-12-03T15:39:07.571Z,0
2018-12-03T15:40:17.365Z,0
2018-12-03T15:41:27.433Z,0
2018-12-03T15:42:37.012Z,0
2018-12-03T15:43:46.831Z,0
2018-12-03T15:44:56.679Z,0
2018-12-03T15:46:06.753Z,0
2018-12-03T15:47:16.816Z,0
2018-12-03T15:48:26.622Z,0
2018-12-03T15:49:36.678Z,0
2018-12-03T15:50:46.478Z,0
2018-12-03T15:51:56.567Z,0
2018-12-03T15:53:06.637Z,0
2018-12-03T15:54:16.718Z,0
2018-12-03T15:55:26.808Z,0
2018-12-03T15:56:36.874Z,0
2018-12-03T15:57:46.942Z,0
2018-12-03T15:58:56.758Z,0
2018-12-03T16:00:08.975Z,0
2018-12-03T16:01:24.150Z,0
2018-12-03T16:02:34.085Z,0
2018-12-03T16:03:43.879Z,0
2018-12-03T16:04:53.684Z,0
2018-12-03T16:06:03.767Z,0
2018-12-03T16:07:13.827Z,0
2018-12-03T16:08:23.904Z,0
2018-12-03T16:09:34.110Z,0
2018-12-03T16:10:43.931Z,0
2018-12-03T16:11:53.987Z,0
2018-12-03T16:13:04.067Z,0
2018-12-03T16:14:14.147Z,0
2018-12-03T16:15:24.217Z,0
2018-12-03T16:16:34.281Z,0
2018-12-03T16:17:44.079Z,0
2018-12-03T16:18:53.875Z,0
2018-12-03T16:20:03.475Z,0
2018-12-03T16:21:13.543Z,0
2018-12-03T16:22:23.364Z,0
2018-12-03T16:23:33.435Z,0
2018-12-03T16:24:43.605Z,0
2018-12-03T16:25:53.716Z,0
2018-12-03T16:27:03.778Z,0
2018-12-03T16:28:13.847Z,0
2018-12-03T16:29:23.909Z,0
2018-12-03T16:30:33.991Z,0
2018-12-03T16:31:44.061Z,0
2018-12-03T16:32:54.180Z,0
2018-12-03T16:34:03.743Z,0
2018-12-03T16:35:13.857Z,0
2018-12-03T16:36:23.968Z,0
2018-12-03T16:37:34.046Z,0
2018-12-03T16:38:44.115Z,0
2018-12-03T16:39:54.241Z,0
2018-12-03T16:41:04.326Z,0
2018-12-03T16:42:14.387Z,0
2018-12-03T16:43:24.533Z,0
2018-12-03T16:44:34.632Z,0
2018-12-03T16:45:44.686Z,0
2018-12-03T16:46:54.768Z,0
2018-12-03T16:48:04.836Z,0
2018-12-03T16:49:15.762Z,0
2018-12-03T16:50:26.730Z,0
2018-12-03T16:51:36.814Z,0
2018-12-03T16:52:46.937Z,0
2018-12-03T16:53:57.009Z,0
2018-12-03T16:55:07.094Z,0
2018-12-03T16:56:17.169Z,0
2018-12-03T16:57:27.307Z,0
2018-12-03T16:58:37.429Z,0
2018-12-03T16:59:47.260Z,0
2018-12-03T17:00:57.074Z,0
2018-12-03T17:02:07.152Z,0
2018-12-03T17:03:17.248Z,0
2018-12-03T17:04:27.050Z,0
2018-12-03T17:05:37.188Z,0
2018-12-03T17:06:47.248Z,0
2018-12-03T17:07:57.297Z,0
2018-12-03T17:09:07.409Z,0
2018-12-03T17:10:17.528Z,0
2018-12-03T17:11:27.574Z,0
2018-12-03T17:12:37.379Z,0
2018-12-03T17:13:47.430Z,0
2018-12-03T17:14:57.528Z,0
2018-12-03T17:16:07.635Z,0
2018-12-03T17:17:17.443Z,0
2018-12-03T17:18:27.251Z,0
2018-12-03T17:19:37.319Z,0
2018-12-03T17:20:48.405Z,0
2018-12-03T17:21:58.244Z,0
2018-12-03T17:23:08.306Z,0
2018-12-03T17:24:18.369Z,0
2018-12-03T17:25:28.433Z,0
2018-12-03T17:26:38.491Z,0
2018-12-03T17:27:48.305Z,0
2018-12-03T17:28:58.370Z,0
2018-12-03T17:30:08.421Z,0
2018-12-03T17:31:18.513Z,0
2018-12-03T17:32:28.583Z,0
2018-12-03T17:33:38.652Z,0